Terminal Aerodrome Forecast
Issued by NWS Grand Forks, ND

Home | Current Version | Previous Version | Graphics & Text | Print | Product List | Glossary On
Versions: 1 2 3 4 5 6 7 8 9 10 11 12 13 14 15 16 17 18 19 20
330
FTUS43 KFGF 241124
TAFFAR
TAF
KFAR 241124Z 2412/2512 36010KT 5SM BR OVC006
      TEMPO 2412/2414 3SM BR
     FM241500 36011KT P6SM BKN012
     FM241700 36011KT P6SM SCT015
     FM250300 VRB06KT P6SM FEW060=

USA.gov is the U.S. government's official web portal to all federal, state and local government web resources and services.